createdAt,value
2017-12-13T00:00:34.772Z,34.90
2017-12-13T00:03:03.251Z,33.50
2017-12-13T00:05:31.666Z,34.20
2017-12-13T00:08:00.080Z,33.60
2017-12-13T00:10:28.465Z,37.92
2017-12-13T00:12:56.826Z,33.67
2017-12-13T00:15:25.187Z,35.42
2017-12-13T00:17:54.304Z,31.35
2017-12-13T00:20:23.090Z,35.55
2017-12-13T00:22:51.471Z,30.40
2017-12-13T00:25:19.900Z,39.53
2017-12-13T00:27:48.387Z,37.45
2017-12-13T00:30:16.840Z,27.30
2017-12-13T00:32:45.285Z,32.65
2017-12-13T00:35:13.737Z,45.00
2017-12-13T00:37:42.330Z,30.67
2017-12-13T00:40:11.855Z,31.73
2017-12-13T00:42:40.752Z,25.52
2017-12-13T00:45:09.535Z,30.85
2017-12-13T00:47:38.072Z,26.95
2017-12-13T00:50:10.365Z,29.27
2017-12-13T00:52:38.812Z,23.50
2017-12-13T00:55:07.324Z,30.62
2017-12-13T00:57:35.822Z,28.27
2017-12-13T01:00:05.211Z,24.52
2017-12-13T01:02:34.576Z,27.13
2017-12-13T01:05:03.298Z,25.27
2017-12-13T01:07:31.890Z,27.17
2017-12-13T01:10:01.111Z,32.20
2017-12-13T01:12:29.562Z,27.40
2017-12-13T01:14:58.042Z,23.20
2017-12-13T01:17:26.480Z,26.85
2017-12-13T01:19:55.669Z,27.70
2017-12-13T01:22:24.102Z,29.23
2017-12-13T01:24:52.585Z,26.02
2017-12-13T01:27:22.138Z,24.52
2017-12-13T01:29:50.520Z,34.83
2017-12-13T01:32:19.038Z,27.15
2017-12-13T01:34:47.537Z,26.12
2017-12-13T01:37:15.914Z,28.58
2017-12-13T01:39:44.349Z,29.55
2017-12-13T01:42:12.878Z,24.70
2017-12-13T01:44:41.341Z,24.80
2017-12-13T01:47:10.502Z,28.55
2017-12-13T01:49:38.999Z,29.98
2017-12-13T01:52:07.500Z,31.87
2017-12-13T01:54:35.904Z,28.70
2017-12-13T01:57:04.493Z,35.38
2017-12-13T01:59:32.997Z,27.65
2017-12-13T02:02:01.486Z,27.25
2017-12-13T02:04:29.914Z,24.50
2017-12-13T02:06:58.386Z,25.60
2017-12-13T02:09:26.829Z,27.75
2017-12-13T02:11:55.499Z,25.05
2017-12-13T02:14:24.783Z,25.10
2017-12-13T02:16:53.160Z,23.48
2017-12-13T02:19:21.663Z,23.83
2017-12-13T02:21:50.117Z,24.95
2017-12-13T02:24:18.611Z,24.33
2017-12-13T02:26:47.027Z,22.83
2017-12-13T02:29:15.551Z,20.48
2017-12-13T02:31:43.962Z,23.15
2017-12-13T02:34:13.742Z,23.55
2017-12-13T02:36:42.261Z,30.83
2017-12-13T02:39:10.645Z,24.40
2017-12-13T02:41:39.931Z,26.45
2017-12-13T02:44:08.377Z,24.42
2017-12-13T02:46:37.614Z,20.60
2017-12-13T02:49:06.087Z,33.85
2017-12-13T02:51:34.500Z,29.95
2017-12-13T02:54:02.902Z,30.83
2017-12-13T02:56:31.855Z,31.58
2017-12-13T02:59:01.001Z,30.85
2017-12-13T03:01:29.525Z,32.63
2017-12-13T03:03:57.981Z,32.72
2017-12-13T03:06:26.488Z,39.80
2017-12-13T03:08:54.969Z,36.05
2017-12-13T03:11:23.605Z,38.00
2017-12-13T03:13:52.138Z,44.13
2017-12-13T03:16:20.523Z,35.85
2017-12-13T03:18:50.227Z,40.72
2017-12-13T03:21:18.702Z,41.63
2017-12-13T03:23:47.177Z,47.42
2017-12-13T03:26:15.773Z,41.92
2017-12-13T03:28:44.277Z,40.42
2017-12-13T03:31:12.629Z,37.00
2017-12-13T03:33:42.140Z,41.35
2017-12-13T03:36:10.624Z,43.95
2017-12-13T03:38:39.107Z,37.90
2017-12-13T03:41:07.617Z,44.33
2017-12-13T03:43:36.863Z,34.15
2017-12-13T03:46:05.269Z,40.58
2017-12-13T03:48:34.578Z,40.05
2017-12-13T03:51:03.036Z,39.08
2017-12-13T03:53:31.531Z,44.78
2017-12-13T03:56:00.119Z,41.28
2017-12-13T03:58:28.585Z,49.08
2017-12-13T04:00:57.128Z,50.20
2017-12-13T04:03:25.870Z,38.80
2017-12-13T04:05:54.271Z,41.03
2017-12-13T04:08:23.528Z,40.40
2017-12-13T04:10:52.074Z,48.45
2017-12-13T04:13:20.538Z,39.53
2017-12-13T04:15:49.852Z,48.28
2017-12-13T04:18:18.331Z,48.60
2017-12-13T04:20:48.426Z,44.13
2017-12-13T04:23:17.619Z,46.83
2017-12-13T04:25:46.462Z,39.70
2017-12-13T04:28:14.993Z,43.53
2017-12-13T04:30:43.438Z,39.80
2017-12-13T04:33:12.069Z,34.97
2017-12-13T04:35:41.292Z,40.80
2017-12-13T04:38:09.836Z,42.33
2017-12-13T04:40:39.140Z,35.10
2017-12-13T04:43:08.440Z,35.60
2017-12-13T04:45:37.651Z,35.40
2017-12-13T04:48:07.298Z,34.80
2017-12-13T04:50:35.711Z,37.05
2017-12-13T04:53:04.192Z,38.10
2017-12-13T04:55:32.792Z,39.53
2017-12-13T04:58:01.202Z,38.60
2017-12-13T05:00:30.475Z,36.72
2017-12-13T05:02:58.971Z,37.47
2017-12-13T05:05:28.224Z,40.03
2017-12-13T05:07:56.742Z,36.30
2017-12-13T05:10:26.453Z,41.20
2017-12-13T05:12:55.073Z,40.00
2017-12-13T05:15:23.514Z,35.20
2017-12-13T05:17:51.996Z,40.65
2017-12-13T05:20:20.394Z,39.22
2017-12-13T05:22:49.543Z,35.15
2017-12-13T05:25:17.892Z,38.03
2017-12-13T05:27:46.314Z,40.30
2017-12-13T05:30:14.722Z,36.67
2017-12-13T05:32:43.502Z,34.80
2017-12-13T05:35:11.955Z,42.88
2017-12-13T05:37:40.440Z,36.67
2017-12-13T05:40:08.838Z,34.22
2017-12-13T05:42:37.330Z,38.55
2017-12-13T05:45:05.801Z,34.65
2017-12-13T05:47:34.411Z,37.17
2017-12-13T05:50:03.693Z,29.90
2017-12-13T05:52:32.181Z,27.70
2017-12-13T05:55:00.966Z,28.45
2017-12-13T05:57:29.446Z,23.75
2017-12-13T05:59:57.885Z,21.02
2017-12-13T06:02:28.194Z,25.90
2017-12-13T06:04:56.747Z,28.50
2017-12-13T06:07:26.390Z,20.10
2017-12-13T06:09:55.042Z,22.85
2017-12-13T06:12:24.547Z,22.70
2017-12-13T06:14:53.029Z,20.00
2017-12-13T06:17:21.692Z,19.27
2017-12-13T06:19:50.195Z,19.65
2017-12-13T06:22:18.610Z,19.52
2017-12-13T06:24:47.092Z,18.48
2017-12-13T06:27:15.605Z,18.80
2017-12-13T06:29:44.152Z,16.70
2017-12-13T06:32:12.598Z,21.73
2017-12-13T06:34:41.084Z,16.77
2017-12-13T06:37:09.568Z,18.42
2017-12-13T06:39:38.456Z,14.75
2017-12-13T06:42:06.936Z,13.73
2017-12-13T06:44:35.385Z,19.45
2017-12-13T06:47:03.838Z,21.10
2017-12-13T06:49:32.290Z,17.10
2017-12-13T06:52:01.475Z,14.32
2017-12-13T06:54:30.030Z,11.93
2017-12-13T06:56:58.391Z,17.85
2017-12-13T06:59:26.817Z,12.65
2017-12-13T07:01:56.015Z,10.27
2017-12-13T07:04:24.419Z,12.32
2017-12-13T07:06:53.622Z,12.40
2017-12-13T07:09:22.078Z,21.33
2017-12-13T07:11:50.455Z,11.30
2017-12-13T07:14:19.691Z,16.85
2017-12-13T07:16:48.039Z,21.02
2017-12-13T07:19:16.516Z,14.65
2017-12-13T07:21:44.995Z,15.70
2017-12-13T07:24:13.739Z,13.10
2017-12-13T07:26:42.156Z,13.38
2017-12-13T07:29:10.548Z,14.23
2017-12-13T07:31:39.026Z,13.20
2017-12-13T07:34:07.510Z,11.10
2017-12-13T07:36:35.991Z,13.93
2017-12-13T07:39:04.551Z,10.93
2017-12-13T07:41:33.670Z,11.15
2017-12-13T07:44:02.024Z,9.43
2017-12-13T07:46:30.730Z,12.18
2017-12-13T07:48:59.156Z,11.80
2017-12-13T07:51:27.524Z,8.25
2017-12-13T07:53:56.826Z,8.75
2017-12-13T07:56:25.447Z,7.50
2017-12-13T07:58:53.845Z,10.80
2017-12-13T08:01:22.252Z,18.23
2017-12-13T08:03:50.623Z,9.48
2017-12-13T08:06:19.109Z,6.82
2017-12-13T08:08:47.552Z,8.45
2017-12-13T08:11:16.084Z,7.93
2017-12-13T08:13:44.454Z,9.70
2017-12-13T08:16:13.748Z,7.37
2017-12-13T08:18:42.120Z,7.03
2017-12-13T08:21:10.500Z,9.45
2017-12-13T08:23:38.886Z,6.15
2017-12-13T08:26:08.198Z,6.12
2017-12-13T08:28:37.463Z,7.50
2017-12-13T08:31:06.474Z,9.13
2017-12-13T08:33:34.894Z,6.37
2017-12-13T08:36:03.412Z,6.55
2017-12-13T08:38:31.927Z,5.97
2017-12-13T08:41:00.313Z,14.68
2017-12-13T08:43:38.928Z,5.57
2017-12-13T08:46:07.385Z,5.95
2017-12-13T08:48:35.913Z,7.03
2017-12-13T08:51:04.887Z,8.40
2017-12-13T08:53:33.278Z,6.93
2017-12-13T08:56:01.651Z,5.53
2017-12-13T08:58:29.991Z,5.87
2017-12-13T09:00:58.402Z,6.40
2017-12-13T09:03:26.791Z,5.40
2017-12-13T09:05:56.001Z,5.72
2017-12-13T09:08:25.188Z,6.03
2017-12-13T09:10:54.482Z,4.70
2017-12-13T09:13:23.241Z,6.10
2017-12-13T09:15:51.660Z,4.95
2017-12-13T09:18:20.824Z,5.70
2017-12-13T09:20:49.234Z,4.93
2017-12-13T09:23:17.712Z,4.90
2017-12-13T09:25:46.079Z,5.50
2017-12-13T09:28:14.587Z,10.32
2017-12-13T09:30:43.858Z,7.93
2017-12-13T09:33:12.356Z,5.15
2017-12-13T09:35:40.902Z,5.30
2017-12-13T09:38:12.115Z,8.77
2017-12-13T09:40:40.550Z,4.68
2017-12-13T09:43:09.014Z,5.82
2017-12-13T09:45:37.544Z,5.25
2017-12-13T09:48:05.927Z,6.70
2017-12-13T09:50:34.726Z,6.62
2017-12-13T09:53:03.270Z,5.12
2017-12-13T09:55:32.498Z,6.20
2017-12-13T09:58:01.477Z,5.62
2017-12-13T10:00:29.958Z,5.12
2017-12-13T10:02:58.440Z,4.68
2017-12-13T10:05:27.643Z,5.93
2017-12-13T10:07:56.133Z,5.03
2017-12-13T10:10:24.566Z,4.77
2017-12-13T10:12:53.039Z,6.03
2017-12-13T10:15:21.484Z,4.80
2017-12-13T10:17:50.664Z,4.73
2017-12-13T10:20:19.445Z,5.03
2017-12-13T10:22:47.947Z,4.67
2017-12-13T10:25:17.225Z,5.90
2017-12-13T10:27:45.688Z,6.78
2017-12-13T10:30:14.127Z,5.87
2017-12-13T10:32:42.565Z,5.43
2017-12-13T10:35:11.043Z,6.25
2017-12-13T10:37:39.486Z,7.90
2017-12-13T10:40:08.016Z,5.65
2017-12-13T10:42:36.878Z,5.93
2017-12-13T10:45:05.288Z,6.45
2017-12-13T10:47:49.557Z,5.30
2017-12-13T10:50:18.723Z,5.55
2017-12-13T10:52:47.141Z,5.35
2017-12-13T10:55:16.317Z,7.93
2017-12-13T10:57:44.798Z,6.70
2017-12-13T11:00:13.263Z,9.30
2017-12-13T11:02:41.877Z,6.85
2017-12-13T11:05:11.168Z,5.82
2017-12-13T11:07:39.576Z,7.78
2017-12-13T11:10:09.027Z,8.40
2017-12-13T11:12:37.493Z,6.25
2017-12-13T11:15:05.932Z,5.20
2017-12-13T11:17:34.374Z,6.00
2017-12-13T11:20:02.782Z,5.00
2017-12-13T11:22:31.226Z,5.40
2017-12-13T11:24:59.866Z,4.70
2017-12-13T11:27:28.334Z,5.62
2017-12-13T11:29:56.709Z,4.55
2017-12-13T11:32:25.179Z,5.00
2017-12-13T11:34:53.561Z,4.53
2017-12-13T11:37:22.744Z,5.07
2017-12-13T11:39:51.265Z,7.15
2017-12-13T11:42:19.855Z,5.20
2017-12-13T11:44:49.147Z,4.55
2017-12-13T11:47:19.143Z,3.72
2017-12-13T11:49:47.638Z,10.90
2017-12-13T11:52:16.111Z,4.45
2017-12-13T11:54:47.575Z,3.62
2017-12-13T11:57:16.757Z,3.72
2017-12-13T11:59:45.217Z,4.68
2017-12-13T12:02:13.600Z,5.12
2017-12-13T12:04:42.066Z,3.72
2017-12-13T12:07:10.785Z,4.30
2017-12-13T12:09:39.483Z,5.93
2017-12-13T12:12:08.780Z,3.87
2017-12-13T12:14:38.091Z,3.22
2017-12-13T12:17:07.277Z,3.60
2017-12-13T12:19:36.171Z,4.18
2017-12-13T12:22:04.690Z,3.78
2017-12-13T12:24:34.364Z,3.62
2017-12-13T12:27:02.818Z,4.37
2017-12-13T12:29:31.324Z,3.65
2017-12-13T12:32:00.096Z,4.10
2017-12-13T12:34:28.559Z,4.55
2017-12-13T12:36:56.950Z,3.50
2017-12-13T12:39:26.282Z,4.72
2017-12-13T12:41:54.725Z,5.93
2017-12-13T12:44:23.152Z,16.52
2017-12-13T12:46:52.340Z,5.05
2017-12-13T12:49:20.814Z,5.62
2017-12-13T12:51:49.268Z,5.80
2017-12-13T12:54:18.289Z,4.10
2017-12-13T12:56:46.681Z,12.57
2017-12-13T12:59:15.137Z,5.37
2017-12-13T13:01:43.574Z,5.18
2017-12-13T13:04:12.022Z,4.90
2017-12-13T13:06:41.216Z,5.00
2017-12-13T13:09:09.796Z,4.15
2017-12-13T13:11:38.283Z,5.03
2017-12-13T13:14:07.478Z,8.27
2017-12-13T13:16:36.227Z,8.10
2017-12-13T13:19:04.617Z,4.82
2017-12-13T13:21:33.942Z,5.55
2017-12-13T13:24:02.427Z,4.95
2017-12-13T13:26:30.909Z,4.40
2017-12-13T13:28:59.370Z,4.72
2017-12-13T13:31:27.768Z,7.90
2017-12-13T13:33:56.170Z,4.60
2017-12-13T13:36:24.542Z,6.93
2017-12-13T13:38:53.065Z,5.78
2017-12-13T13:41:21.500Z,4.47
2017-12-13T13:43:50.620Z,4.30
2017-12-13T13:46:19.797Z,4.80
2017-12-13T13:48:51.107Z,4.35
2017-12-13T13:51:31.333Z,4.15
2017-12-13T13:53:59.753Z,4.57
2017-12-13T13:56:28.196Z,6.32
2017-12-13T13:58:57.079Z,5.37
2017-12-13T14:01:26.314Z,4.75
2017-12-13T14:03:54.729Z,8.55
2017-12-13T14:06:23.214Z,4.80
2017-12-13T14:08:51.599Z,5.22
2017-12-13T14:11:20.794Z,4.22
2017-12-13T14:13:49.192Z,4.32
2017-12-13T14:16:18.453Z,5.53
2017-12-13T14:18:46.921Z,4.18
2017-12-13T14:21:15.564Z,10.15
2017-12-13T14:23:43.912Z,4.43
2017-12-13T14:26:12.278Z,4.40
2017-12-13T14:28:40.710Z,5.15
2017-12-13T14:31:09.047Z,5.82
2017-12-13T14:33:37.430Z,4.78
2017-12-13T14:36:05.880Z,4.97
2017-12-13T14:38:34.289Z,5.03
2017-12-13T14:41:02.668Z,4.62
2017-12-13T14:43:31.445Z,4.18
2017-12-13T14:45:59.837Z,5.15
2017-12-13T14:48:28.307Z,18.87
2017-12-13T14:50:56.817Z,4.60
2017-12-13T14:53:25.892Z,4.70
2017-12-13T14:55:54.329Z,7.55
2017-12-13T14:58:22.861Z,4.57
2017-12-13T15:00:51.364Z,4.12
2017-12-13T15:03:20.515Z,4.53
2017-12-13T15:05:48.958Z,4.65
2017-12-13T15:08:33.173Z,3.95
2017-12-13T15:11:01.627Z,4.45
2017-12-13T15:13:29.975Z,4.85
2017-12-13T15:15:58.457Z,3.72
2017-12-13T15:18:26.873Z,5.18
2017-12-13T15:20:55.345Z,4.00
2017-12-13T15:23:23.678Z,10.88
2017-12-13T15:25:53.168Z,4.40
2017-12-13T15:28:21.658Z,4.80
2017-12-13T15:30:50.982Z,5.32
2017-12-13T15:33:19.455Z,4.00
2017-12-13T15:35:48.627Z,4.68
2017-12-13T15:38:17.007Z,4.45
2017-12-13T15:40:45.655Z,3.53
2017-12-13T15:43:14.110Z,4.97
2017-12-13T15:45:42.554Z,4.28
2017-12-13T15:48:11.238Z,4.12
2017-12-13T15:50:41.373Z,3.90
2017-12-13T15:53:09.831Z,3.75
2017-12-13T15:55:39.173Z,3.15
2017-12-13T15:58:08.380Z,3.30
2017-12-13T16:00:37.645Z,3.60
2017-12-13T16:03:06.018Z,3.53
2017-12-13T16:05:34.440Z,2.78
2017-12-13T16:08:02.824Z,5.10
2017-12-13T16:10:31.668Z,3.10
2017-12-13T16:13:00.048Z,2.60
2017-12-13T16:15:28.532Z,2.55
2017-12-13T16:17:57.752Z,2.37
2017-12-13T16:20:26.177Z,3.08
2017-12-13T16:22:54.567Z,6.93
2017-12-13T16:25:22.933Z,2.05
2017-12-13T16:27:51.320Z,3.03
2017-12-13T16:30:19.618Z,2.60
2017-12-13T16:32:48.420Z,5.35
2017-12-13T16:35:36.413Z,2.60
2017-12-13T16:38:04.771Z,2.78
2017-12-13T16:40:33.238Z,2.80
2017-12-13T16:43:02.518Z,2.35
2017-12-13T16:45:30.933Z,2.15
2017-12-13T16:47:59.488Z,2.33
2017-12-13T16:50:27.858Z,2.80
2017-12-13T16:52:56.748Z,2.80
2017-12-13T16:55:25.149Z,2.70
2017-12-13T16:57:54.436Z,2.42
2017-12-13T17:00:23.015Z,2.75
2017-12-13T17:02:51.495Z,3.28
2017-12-13T17:05:19.979Z,2.30
2017-12-13T17:07:48.488Z,2.20
2017-12-13T17:10:17.020Z,2.80
2017-12-13T17:12:45.525Z,2.50
2017-12-13T17:15:14.515Z,2.58
2017-12-13T17:17:43.052Z,2.35
2017-12-13T17:20:11.494Z,2.75
2017-12-13T17:22:39.873Z,2.83
2017-12-13T17:25:08.249Z,2.60
2017-12-13T17:27:36.720Z,2.30
2017-12-13T17:30:05.293Z,2.60
2017-12-13T17:32:33.788Z,2.83
2017-12-13T17:35:02.195Z,3.12
2017-12-13T17:37:30.876Z,3.00
2017-12-13T17:39:59.391Z,2.50
2017-12-13T17:42:28.639Z,2.80
2017-12-13T17:44:57.120Z,2.90
2017-12-13T17:47:25.593Z,2.30
2017-12-13T17:49:54.188Z,3.00
2017-12-13T17:52:22.686Z,2.95
2017-12-13T17:54:51.963Z,2.80
2017-12-13T17:57:20.356Z,3.00
2017-12-13T17:59:49.541Z,3.28
2017-12-13T18:02:17.888Z,3.08
2017-12-13T18:04:46.248Z,2.90
2017-12-13T18:07:14.788Z,3.10
2017-12-13T18:09:43.271Z,2.45
2017-12-13T18:12:11.671Z,2.28
2017-12-13T18:14:40.890Z,3.05
2017-12-13T18:17:09.431Z,2.80
2017-12-13T18:19:37.883Z,3.45
2017-12-13T18:22:06.755Z,2.97
2017-12-13T18:24:35.189Z,3.15
2017-12-13T18:27:12.292Z,2.65
2017-12-13T18:29:41.506Z,2.80
2017-12-13T18:32:09.872Z,2.53
2017-12-13T18:34:39.128Z,2.40
2017-12-13T18:37:08.346Z,2.97
2017-12-13T18:39:36.780Z,2.87
2017-12-13T18:42:05.498Z,3.00
2017-12-13T18:44:33.894Z,2.47
2017-12-13T18:47:02.478Z,2.80
2017-12-13T18:49:30.957Z,2.35
2017-12-13T18:51:59.445Z,3.00
2017-12-13T18:54:27.841Z,2.30
2017-12-13T18:56:57.022Z,2.60
2017-12-13T18:59:25.509Z,2.90
2017-12-13T19:01:53.905Z,2.60
2017-12-13T19:04:23.400Z,3.03
2017-12-13T19:06:51.888Z,2.65
2017-12-13T19:09:21.084Z,3.50
2017-12-13T19:11:49.540Z,3.28
2017-12-13T19:14:18.002Z,3.87
2017-12-13T19:16:52.463Z,3.80
2017-12-13T19:19:21.046Z,3.67
2017-12-13T19:21:49.492Z,3.35
2017-12-13T19:24:18.100Z,4.45
2017-12-13T19:26:46.688Z,4.28
2017-12-13T19:29:15.271Z,4.20
2017-12-13T19:31:43.738Z,4.10
2017-12-13T19:34:12.233Z,5.22
2017-12-13T19:36:40.822Z,4.05
2017-12-13T19:39:09.199Z,6.40
2017-12-13T19:41:38.405Z,4.15
2017-12-13T19:44:06.770Z,5.68
2017-12-13T19:46:35.566Z,5.50
2017-12-13T19:49:03.938Z,6.18
2017-12-13T19:51:32.282Z,5.70
2017-12-13T19:54:00.647Z,6.57
2017-12-13T19:56:28.983Z,6.47
2017-12-13T19:58:57.299Z,6.15
2017-12-13T20:01:25.674Z,6.57
2017-12-13T20:03:54.830Z,7.00
2017-12-13T20:06:23.141Z,6.53
2017-12-13T20:08:52.448Z,7.30
2017-12-13T20:11:20.762Z,6.37
2017-12-13T20:13:49.122Z,6.55
2017-12-13T20:16:17.534Z,7.45
2017-12-13T20:18:45.859Z,6.95
2017-12-13T20:21:14.953Z,8.05
2017-12-13T20:23:44.131Z,6.68
2017-12-13T20:26:12.453Z,6.80
2017-12-13T20:28:40.787Z,6.57
2017-12-13T20:31:09.588Z,7.60
2017-12-13T20:33:38.291Z,6.50
2017-12-13T20:36:06.795Z,5.85
2017-12-13T20:38:35.216Z,6.20
2017-12-13T20:41:03.532Z,5.28
2017-12-13T20:43:32.129Z,7.37
2017-12-13T20:46:00.590Z,6.50
2017-12-13T20:48:29.799Z,6.15
2017-12-13T20:50:58.196Z,4.70
2017-12-13T20:53:27.128Z,5.05
2017-12-13T20:55:55.607Z,5.53
2017-12-13T20:58:24.027Z,7.47
2017-12-13T21:00:53.121Z,5.62
2017-12-13T21:03:22.248Z,5.37
2017-12-13T21:05:50.607Z,6.22
2017-12-13T21:08:18.964Z,6.40
2017-12-13T21:10:48.079Z,6.57
2017-12-13T21:13:16.449Z,6.10
2017-12-13T21:15:45.803Z,6.15
2017-12-13T21:18:14.111Z,6.72
2017-12-13T21:20:42.418Z,5.32
2017-12-13T21:23:10.792Z,5.65
2017-12-13T21:25:39.893Z,5.25
2017-12-13T21:28:08.234Z,4.55
2017-12-13T21:30:36.620Z,4.85
2017-12-13T21:33:04.974Z,5.10
2017-12-13T21:35:33.339Z,4.50
2017-12-13T21:38:01.773Z,3.95
2017-12-13T21:40:30.891Z,4.55
2017-12-13T21:42:59.190Z,4.25
2017-12-13T21:45:27.606Z,4.65
2017-12-13T21:47:55.958Z,4.40
2017-12-13T21:50:24.296Z,3.65
2017-12-13T21:52:52.666Z,4.22
2017-12-13T21:55:21.760Z,5.15
2017-12-13T21:57:50.858Z,3.08
2017-12-13T22:00:20.231Z,3.00
2017-12-13T22:02:48.559Z,5.70
2017-12-13T22:05:28.775Z,2.75
2017-12-13T22:07:57.075Z,3.05
2017-12-13T22:10:26.126Z,3.00
2017-12-13T22:12:54.484Z,2.67
2017-12-13T22:15:22.795Z,2.80
2017-12-13T22:17:51.093Z,3.20
2017-12-13T22:20:19.646Z,2.50
2017-12-13T22:22:47.985Z,2.83
2017-12-13T22:25:16.373Z,3.28
2017-12-13T22:27:44.689Z,2.60
2017-12-13T22:30:13.842Z,2.95
2017-12-13T22:32:42.197Z,3.25
2017-12-13T22:35:10.526Z,3.87
2017-12-13T22:37:38.834Z,4.93
2017-12-13T22:40:07.140Z,3.30
2017-12-13T22:45:33.494Z,3.30
2017-12-13T22:48:02.189Z,3.53
2017-12-13T22:50:30.498Z,3.20
2017-12-13T22:52:58.799Z,3.60
2017-12-13T22:55:28.066Z,3.90
2017-12-13T22:57:56.415Z,2.92
2017-12-13T23:00:37.326Z,3.53
2017-12-13T23:03:05.918Z,3.40
2017-12-13T23:05:34.278Z,3.40
2017-12-13T23:08:02.628Z,3.08
2017-12-13T23:10:32.446Z,3.45
2017-12-13T23:13:00.785Z,3.72
2017-12-13T23:15:29.122Z,3.80
2017-12-13T23:17:57.440Z,2.85
2017-12-13T23:20:25.757Z,3.65
2017-12-13T23:22:55.747Z,3.22
2017-12-13T23:25:24.068Z,3.30
2017-12-13T23:27:52.486Z,3.58
2017-12-13T23:30:20.834Z,3.30
2017-12-13T23:32:49.146Z,3.40
2017-12-13T23:35:17.448Z,5.12
2017-12-13T23:37:46.181Z,2.78
2017-12-13T23:40:14.543Z,3.37
2017-12-13T23:42:42.846Z,2.33
2017-12-13T23:45:11.266Z,3.08
2017-12-13T23:47:40.331Z,2.37
2017-12-13T23:50:08.680Z,2.20
2017-12-13T23:52:37.092Z,2.60
2017-12-13T23:55:05.409Z,2.05
2017-12-13T23:57:33.715Z,2.00
